Ana Sayfa
METAR-TAF:

METAR-TAF

Havaalanları :

MidCoast Regional Airport / Wright Army Airfield

Hinesville, Georgia, Amerika Birleşik Devletleri

Enlem: 31-53N, Boylam: 081-34W, yükseklik: 14 m

Güncel hava durumu gözlemi

Rapor saat 02:56 UTC de 31 dakika önce yapıldı.
Rüzgar güneydan 3 kt
Sıcaklık 26°C
Nem 70%
Basınç 1019 hPa
Görüş mesafesi: 16.1 km
Açık gökyüzü

METAR: KLHW 250256Z AUTO 18003KT 10SM CLR 26/20 A3009 RMK AO2 SLP192 T02630204 52014 $

Saat: 23:27 (03:27 UTC)


TAF: eksik

4.000'den fazla havaalanı için hava durumu gözlemleri ve tahminleri (METAR ve TAF raporları).

Kullanılabilir istasyonlar harita üzerinde sarı ve kırmızı noktalarla gösterilir.

İstasyonun adını görmek için fareyi noktanın üzerinde gezdirin.

Sonrasında hava gözlem ve tahminlerini görmek için tıklayın.

Haritayı değiştirmek için: yaklaştırmak için siyah artı işaretli yeşil düğmeye ve uzaklaştırmak için de eksi işaretli düğmeye hızla tıklayın; bitişik haritalar için yeşil okları kullanın.


METAR-TAF: